createdAt,value
2019-06-01T00:00:10.993Z,0.00
2019-06-01T00:01:01.808Z,0.00
2019-06-01T00:02:01.752Z,0.00
2019-06-01T00:03:01.753Z,0.00
2019-06-01T00:04:01.715Z,0.00
2019-06-01T00:05:01.708Z,0.00
2019-06-01T00:06:01.678Z,0.00
2019-06-01T00:07:01.662Z,0.00
2019-06-01T00:08:01.647Z,0.00
2019-06-01T00:09:01.631Z,0.00
2019-06-01T00:10:01.604Z,0.00
2019-06-01T00:11:01.587Z,0.00
2019-06-01T00:12:01.573Z,0.00
2019-06-01T00:13:01.555Z,0.00
2019-06-01T00:14:01.533Z,0.00
2019-06-01T00:15:01.530Z,0.00
2019-06-01T00:16:01.507Z,0.00
2019-06-01T00:17:01.484Z,0.00
2019-06-01T00:18:01.466Z,0.00
2019-06-01T00:19:01.462Z,0.00
2019-06-01T00:20:01.446Z,0.00
2019-06-01T00:21:01.432Z,0.00
2019-06-01T00:22:01.394Z,0.00
2019-06-01T00:23:01.380Z,0.00
2019-06-01T00:24:01.352Z,0.00
2019-06-01T00:25:01.340Z,0.00
2019-06-01T00:26:01.315Z,0.00
2019-06-01T00:27:01.299Z,0.00
2019-06-01T00:28:01.280Z,0.00
2019-06-01T00:29:01.261Z,0.00
2019-06-01T00:30:01.255Z,0.00
2019-06-01T00:31:01.226Z,0.00
2019-06-01T00:32:01.207Z,0.00
2019-06-01T00:33:01.194Z,0.00
2019-06-01T00:34:01.187Z,0.00
2019-06-01T00:35:01.155Z,0.00
2019-06-01T00:36:01.133Z,0.00
2019-06-01T00:37:01.122Z,0.00
2019-06-01T00:38:01.095Z,0.00
2019-06-01T00:39:01.077Z,0.00
2019-06-01T00:40:01.060Z,0.00
2019-06-01T00:41:01.047Z,0.00
2019-06-01T00:42:01.036Z,0.00
2019-06-01T00:43:01.002Z,0.00
2019-06-01T00:44:00.989Z,0.00
2019-06-01T00:45:00.968Z,0.00
2019-06-01T00:46:00.952Z,0.00
2019-06-01T00:47:00.930Z,0.00
2019-06-01T00:48:00.917Z,0.00
2019-06-01T00:49:00.908Z,0.00
2019-06-01T00:50:00.876Z,0.00
2019-06-01T00:51:00.866Z,0.00
2019-06-01T00:52:00.839Z,0.00
2019-06-01T00:53:00.820Z,0.00
2019-06-01T00:54:00.801Z,0.00
2019-06-01T00:55:00.783Z,0.00
2019-06-01T00:56:00.766Z,0.00
2019-06-01T00:57:00.763Z,0.00
2019-06-01T00:58:00.729Z,0.00
2019-06-01T00:59:00.709Z,0.00
2019-06-01T01:00:00.702Z,0.00
2019-06-01T01:01:00.680Z,0.00
2019-06-01T01:02:00.657Z,0.00
2019-06-01T01:03:00.650Z,0.00
2019-06-01T01:04:00.621Z,0.00
2019-06-01T01:05:00.602Z,0.00
2019-06-01T01:06:00.580Z,0.00
2019-06-01T01:07:00.570Z,0.00
2019-06-01T01:08:00.569Z,0.00
2019-06-01T01:09:00.527Z,0.00
2019-06-01T01:10:00.512Z,0.00
2019-06-01T01:11:00.489Z,0.00
2019-06-01T01:12:00.474Z,0.00
2019-06-01T01:13:00.452Z,0.00
2019-06-01T01:14:00.444Z,0.00
2019-06-01T01:15:00.416Z,0.00
2019-06-01T01:16:00.401Z,0.00
2019-06-01T01:17:00.382Z,0.00
2019-06-01T01:18:00.360Z,0.00
2019-06-01T01:19:00.349Z,0.00
2019-06-01T01:20:00.330Z,0.00
2019-06-01T01:21:00.315Z,0.00
2019-06-01T01:22:00.287Z,0.00
2019-06-01T01:23:00.267Z,0.00
2019-06-01T01:24:00.251Z,0.00
2019-06-01T01:25:00.231Z,0.00
2019-06-01T01:26:00.212Z,0.00
2019-06-01T01:27:00.193Z,0.00
2019-06-01T01:28:00.177Z,0.00
2019-06-01T01:29:00.155Z,0.00
2019-06-01T01:30:00.137Z,0.00
2019-06-01T01:31:12.353Z,0.00
2019-06-01T01:32:00.101Z,0.00
2019-06-01T01:33:00.083Z,0.00
2019-06-01T01:34:00.075Z,0.00
2019-06-01T01:35:00.055Z,0.00
2019-06-01T01:36:00.025Z,0.00
2019-06-01T01:37:00.009Z,0.00
2019-06-01T01:37:59.988Z,0.00
2019-06-01T01:38:59.977Z,0.00
2019-06-01T01:39:59.951Z,0.00
2019-06-01T01:40:59.937Z,0.00
2019-06-01T01:41:59.923Z,0.00
2019-06-01T01:42:59.896Z,0.00
2019-06-01T01:43:59.880Z,0.00
2019-06-01T01:44:59.865Z,0.00
2019-06-01T01:45:59.841Z,0.00
2019-06-01T01:46:59.844Z,0.00
2019-06-01T01:47:59.802Z,0.00
2019-06-01T01:48:59.784Z,0.00
2019-06-01T01:49:59.764Z,0.00
2019-06-01T01:50:59.745Z,0.00
2019-06-01T01:51:59.728Z,0.00
2019-06-01T01:52:59.707Z,0.00
2019-06-01T01:53:59.691Z,0.00
2019-06-01T01:54:59.671Z,0.00
2019-06-01T01:55:59.655Z,0.00
2019-06-01T01:56:59.634Z,0.00
2019-06-01T01:57:59.644Z,0.00
2019-06-01T01:58:59.596Z,0.00
2019-06-01T01:59:59.581Z,0.00
2019-06-01T02:01:00.351Z,0.00
2019-06-01T02:01:59.540Z,0.00
2019-06-01T02:03:00.130Z,0.00
2019-06-01T02:03:59.502Z,0.00
2019-06-01T02:04:59.946Z,0.00
2019-06-01T02:05:59.469Z,0.00
2019-06-01T02:07:00.293Z,0.00
2019-06-01T02:08:00.112Z,0.00
2019-06-01T02:08:59.485Z,0.00
2019-06-01T02:09:59.392Z,0.00
2019-06-01T02:10:59.589Z,0.00
2019-06-01T02:11:59.638Z,0.00
2019-06-01T02:12:59.666Z,0.00
2019-06-01T02:13:59.915Z,0.00
2019-06-01T02:14:59.770Z,0.00
2019-06-01T02:16:00.545Z,0.00
2019-06-01T02:17:00.274Z,0.00
2019-06-01T02:18:00.566Z,0.00
2019-06-01T02:19:00.445Z,0.00
2019-06-01T02:20:00.242Z,0.00
2019-06-01T02:21:00.398Z,0.00
2019-06-01T02:21:59.165Z,0.00
2019-06-01T02:22:59.151Z,0.00
2019-06-01T02:23:59.176Z,0.00
2019-06-01T02:24:59.855Z,0.00
2019-06-01T02:25:59.093Z,0.00
2019-06-01T02:26:59.402Z,0.00
2019-06-01T02:27:59.288Z,0.00
2019-06-01T02:28:59.495Z,0.00
2019-06-01T02:29:59.357Z,0.00
2019-06-01T02:30:59.982Z,0.00
2019-06-01T02:31:59.261Z,0.00
2019-06-01T02:33:00.199Z,0.00
2019-06-01T02:34:01.040Z,0.00
2019-06-01T02:35:00.232Z,0.00
2019-06-01T02:36:00.624Z,0.00
2019-06-01T02:37:00.243Z,0.00
2019-06-01T02:38:00.186Z,0.00
2019-06-01T02:39:00.919Z,0.00
2019-06-01T02:39:58.830Z,0.00
2019-06-01T02:40:58.952Z,0.00
2019-06-01T02:41:59.106Z,0.00
2019-06-01T02:42:59.291Z,0.00
2019-06-01T02:43:59.109Z,0.00
2019-06-01T02:44:59.219Z,0.00
2019-06-01T02:46:00.391Z,0.00
2019-06-01T02:46:59.541Z,0.00
2019-06-01T02:47:59.475Z,0.00
2019-06-01T02:48:59.798Z,0.00
2019-06-01T02:49:59.430Z,0.00
2019-06-01T02:50:59.918Z,0.00
2019-06-01T02:51:59.265Z,0.00
2019-06-01T02:52:59.433Z,0.00
2019-06-01T02:53:59.604Z,4.00
2019-06-01T02:54:59.594Z,0.00
2019-06-01T02:55:59.829Z,0.00
2019-06-01T02:56:58.512Z,0.00
2019-06-01T02:57:58.498Z,4.00
2019-06-01T02:58:58.468Z,0.00
2019-06-01T02:59:58.447Z,0.00
2019-06-01T03:00:58.986Z,4.00
2019-06-01T03:02:05.003Z,4.00
2019-06-01T03:02:58.631Z,4.00
2019-06-01T03:03:59.537Z,4.00
2019-06-01T03:04:59.058Z,4.00
2019-06-01T03:05:59.280Z,4.00
2019-06-01T03:06:59.519Z,8.00
2019-06-01T03:07:59.356Z,4.00
2019-06-01T03:08:59.636Z,4.00
2019-06-01T03:09:58.747Z,4.00
2019-06-01T03:10:58.239Z,8.00
2019-06-01T03:12:00.420Z,8.00
2019-06-01T03:12:58.205Z,8.00
2019-06-01T03:13:58.289Z,8.00
2019-06-01T03:14:58.338Z,12.00
2019-06-01T03:15:58.214Z,12.00
2019-06-01T03:16:59.630Z,12.00
2019-06-01T03:17:59.364Z,12.00
2019-06-01T03:18:59.595Z,12.00
2019-06-01T03:19:58.066Z,12.00
2019-06-01T03:20:58.052Z,16.00
2019-06-01T03:21:58.028Z,20.00
2019-06-01T03:22:58.008Z,20.00
2019-06-01T03:23:57.990Z,20.00
2019-06-01T03:24:57.978Z,24.00
2019-06-01T03:25:57.956Z,24.00
2019-06-01T03:26:57.933Z,28.00
2019-06-01T03:27:57.913Z,28.00
2019-06-01T03:28:57.896Z,28.00
2019-06-01T03:29:57.874Z,32.00
2019-06-01T03:30:57.857Z,36.00
2019-06-01T03:32:17.685Z,36.00
2019-06-01T03:32:57.818Z,40.00
2019-06-01T03:33:57.807Z,44.00
2019-06-01T03:34:57.781Z,48.00
2019-06-01T03:35:57.763Z,48.00
2019-06-01T03:36:57.743Z,52.00
2019-06-01T03:37:57.726Z,52.00
2019-06-01T03:38:57.709Z,56.00
2019-06-01T03:39:57.685Z,60.00
2019-06-01T03:40:57.666Z,60.00
2019-06-01T03:41:57.656Z,64.00
2019-06-01T03:42:57.629Z,68.00
2019-06-01T03:43:57.608Z,68.00
2019-06-01T03:44:57.602Z,72.00
2019-06-01T03:45:57.572Z,72.00
2019-06-01T03:46:57.550Z,76.00
2019-06-01T03:47:57.537Z,76.00
2019-06-01T03:48:57.515Z,80.00
2019-06-01T03:49:57.494Z,84.00
2019-06-01T03:50:57.475Z,88.00
2019-06-01T03:51:57.455Z,92.00
2019-06-01T03:52:57.441Z,96.00
2019-06-01T03:53:57.420Z,96.00
2019-06-01T03:54:57.399Z,100.00
2019-06-01T03:55:57.382Z,104.00
2019-06-01T03:56:57.361Z,104.00
2019-06-01T03:57:57.345Z,104.00
2019-06-01T03:58:57.326Z,112.00
2019-06-01T03:59:57.303Z,112.00
2019-06-01T04:00:57.290Z,112.00
2019-06-01T04:01:57.265Z,116.00
2019-06-01T04:02:57.246Z,120.00
2019-06-01T04:03:57.231Z,124.00
2019-06-01T04:04:57.212Z,128.00
2019-06-01T04:05:57.191Z,128.00
2019-06-01T04:06:57.172Z,132.00
2019-06-01T04:07:57.160Z,132.00
2019-06-01T04:08:57.135Z,132.00
2019-06-01T04:09:57.120Z,132.00
2019-06-01T04:10:57.102Z,140.00
2019-06-01T04:11:57.077Z,144.00
2019-06-01T04:12:57.061Z,144.00
2019-06-01T04:13:57.048Z,148.00
2019-06-01T04:14:57.024Z,152.00
2019-06-01T04:15:57.003Z,148.00
2019-06-01T04:16:56.984Z,148.00
2019-06-01T04:17:56.970Z,148.00
2019-06-01T04:18:56.944Z,148.00
2019-06-01T04:19:56.926Z,148.00
2019-06-01T04:20:56.917Z,148.00
2019-06-01T04:21:56.887Z,152.00
2019-06-01T04:22:56.872Z,156.00
2019-06-01T04:23:56.852Z,164.00
2019-06-01T04:24:56.835Z,164.00
2019-06-01T04:25:56.811Z,168.00
2019-06-01T04:26:56.793Z,176.00
2019-06-01T04:27:56.771Z,176.00
2019-06-01T04:28:56.756Z,180.00
2019-06-01T04:29:56.734Z,184.00
2019-06-01T04:30:56.717Z,188.00
2019-06-01T04:31:56.707Z,196.00
2019-06-01T04:32:56.680Z,196.00
2019-06-01T04:33:56.661Z,200.00
2019-06-01T04:34:56.640Z,204.00
2019-06-01T04:35:56.622Z,204.00
2019-06-01T04:36:56.604Z,204.00
2019-06-01T04:37:56.583Z,204.00
2019-06-01T04:38:56.565Z,204.00
2019-06-01T04:39:56.546Z,204.00
2019-06-01T04:40:56.528Z,208.00
2019-06-01T04:41:56.519Z,216.00
2019-06-01T04:42:56.492Z,216.00
2019-06-01T04:43:56.469Z,224.00
2019-06-01T04:44:56.451Z,224.00
2019-06-01T04:45:56.431Z,224.00
2019-06-01T04:46:56.417Z,220.00
2019-06-01T04:47:56.395Z,212.00
2019-06-01T04:48:56.375Z,212.00
2019-06-01T04:49:56.363Z,208.00
2019-06-01T04:50:56.342Z,200.00
2019-06-01T04:51:56.317Z,200.00
2019-06-01T04:52:56.304Z,196.00
2019-06-01T04:53:56.283Z,196.00
2019-06-01T04:54:56.264Z,196.00
2019-06-01T04:55:56.252Z,196.00
2019-06-01T04:56:56.229Z,192.00
2019-06-01T04:57:56.216Z,180.00
2019-06-01T04:58:56.186Z,172.00
2019-06-01T04:59:56.167Z,168.00
2019-06-01T05:00:56.149Z,168.00
2019-06-01T05:01:56.128Z,168.00
2019-06-01T05:03:04.970Z,176.00
2019-06-01T05:03:56.093Z,184.00
2019-06-01T05:04:56.076Z,184.00
2019-06-01T05:05:56.054Z,188.00
2019-06-01T05:06:56.036Z,176.00
2019-06-01T05:07:56.017Z,180.00
2019-06-01T05:08:55.997Z,200.00
2019-06-01T05:09:55.977Z,204.00
2019-06-01T05:10:56.014Z,216.00
2019-06-01T05:11:55.942Z,216.00
2019-06-01T05:12:55.921Z,216.00
2019-06-01T05:13:55.903Z,216.00
2019-06-01T05:14:55.884Z,232.00
2019-06-01T05:15:55.866Z,236.00
2019-06-01T05:16:55.850Z,240.00
2019-06-01T05:17:55.837Z,240.00
2019-06-01T05:18:55.808Z,252.00
2019-06-01T05:19:55.793Z,264.00
2019-06-01T05:20:55.772Z,268.00
2019-06-01T05:21:55.751Z,272.00
2019-06-01T05:22:55.734Z,276.00
2019-06-01T05:23:55.721Z,280.00
2019-06-01T05:24:55.697Z,284.00
2019-06-01T05:25:55.682Z,288.00
2019-06-01T05:26:55.657Z,288.00
2019-06-01T05:27:55.638Z,292.00
2019-06-01T05:28:55.619Z,296.00
2019-06-01T05:29:55.601Z,300.00
2019-06-01T05:30:55.586Z,300.00
2019-06-01T05:31:55.562Z,308.00
2019-06-01T05:32:55.551Z,312.00
2019-06-01T05:33:55.525Z,312.00
2019-06-01T05:34:55.508Z,316.00
2019-06-01T05:35:55.489Z,316.00
2019-06-01T05:36:55.469Z,320.00
2019-06-01T05:37:55.451Z,324.00
2019-06-01T05:38:55.433Z,324.00
2019-06-01T05:39:55.424Z,324.00
2019-06-01T05:40:55.393Z,328.00
2019-06-01T05:41:55.383Z,324.00
2019-06-01T05:42:55.357Z,324.00
2019-06-01T05:43:55.341Z,324.00
2019-06-01T05:44:55.318Z,320.00
2019-06-01T05:45:55.299Z,320.00
2019-06-01T05:46:55.282Z,320.00
2019-06-01T05:47:55.265Z,312.00
2019-06-01T05:48:55.249Z,304.00
2019-06-01T05:49:55.224Z,268.00
2019-06-01T05:50:55.210Z,240.00
2019-06-01T05:51:55.189Z,260.00
2019-06-01T05:52:55.170Z,280.00
2019-06-01T05:53:55.151Z,336.00
2019-06-01T05:54:55.133Z,352.00
2019-06-01T05:55:55.123Z,352.00
2019-06-01T05:56:55.095Z,356.00
2019-06-01T05:57:55.079Z,360.00
2019-06-01T05:58:55.065Z,360.00
2019-06-01T05:59:55.044Z,364.00
2019-06-01T06:00:55.022Z,368.00
2019-06-01T06:01:55.006Z,372.00
2019-06-01T06:02:54.983Z,360.00
2019-06-01T06:03:54.966Z,360.00
2019-06-01T06:04:54.946Z,376.00
2019-06-01T06:05:54.959Z,388.00
2019-06-01T06:06:54.910Z,388.00
2019-06-01T06:07:54.891Z,388.00
2019-06-01T06:08:54.872Z,396.00
2019-06-01T06:09:54.862Z,404.00
2019-06-01T06:10:54.845Z,404.00
2019-06-01T06:11:54.820Z,420.00
2019-06-01T06:12:54.800Z,444.00
2019-06-01T06:13:54.799Z,472.00
2019-06-01T06:14:54.763Z,492.00
2019-06-01T06:15:54.745Z,488.00
2019-06-01T06:16:54.727Z,472.00
2019-06-01T06:17:54.707Z,480.00
2019-06-01T06:18:54.693Z,508.00
2019-06-01T06:19:54.672Z,520.00
2019-06-01T06:20:54.654Z,520.00
2019-06-01T06:21:54.641Z,496.00
2019-06-01T06:22:54.615Z,460.00
2019-06-01T06:23:54.598Z,480.00
2019-06-01T06:24:54.581Z,496.00
2019-06-01T06:25:54.576Z,492.00
2019-06-01T06:26:54.541Z,500.00
2019-06-01T06:27:54.532Z,480.00
2019-06-01T06:28:54.510Z,504.00
2019-06-01T06:29:54.487Z,500.00
2019-06-01T06:30:54.473Z,504.00
2019-06-01T06:31:54.451Z,524.00
2019-06-01T06:32:54.437Z,528.00
2019-06-01T06:33:56.850Z,532.00
2019-06-01T06:34:54.394Z,540.00
2019-06-01T06:35:54.380Z,544.00
2019-06-01T06:36:54.372Z,552.00
2019-06-01T06:37:54.340Z,560.00
2019-06-01T06:38:54.322Z,572.00
2019-06-01T06:39:54.312Z,588.00
2019-06-01T06:40:54.285Z,596.00
2019-06-01T06:41:54.286Z,592.00
2019-06-01T06:42:54.250Z,596.00
2019-06-01T06:43:54.239Z,592.00
2019-06-01T06:44:54.212Z,612.00
2019-06-01T06:45:54.205Z,612.00
2019-06-01T06:46:54.186Z,588.00
2019-06-01T06:47:54.168Z,620.00
2019-06-01T06:48:54.148Z,608.00
2019-06-01T06:49:54.131Z,636.00
2019-06-01T06:50:54.130Z,632.00
2019-06-01T06:51:54.087Z,636.00
2019-06-01T06:52:54.078Z,648.00
2019-06-01T06:53:54.068Z,644.00
2019-06-01T06:54:54.045Z,676.00
2019-06-01T06:55:54.024Z,692.00
2019-06-01T06:56:54.000Z,704.00
2019-06-01T06:57:53.978Z,684.00
2019-06-01T06:58:53.965Z,704.00
2019-06-01T06:59:53.948Z,704.00
2019-06-01T07:00:53.949Z,724.00
2019-06-01T07:01:53.908Z,712.00
2019-06-01T07:02:53.888Z,732.00
2019-06-01T07:03:53.881Z,736.00
2019-06-01T07:04:53.877Z,752.00
2019-06-01T07:05:53.848Z,752.00
2019-06-01T07:06:53.817Z,772.00
2019-06-01T07:07:53.804Z,792.00
2019-06-01T07:08:53.790Z,804.00
2019-06-01T07:09:53.780Z,808.00
2019-06-01T07:10:53.758Z,780.00
2019-06-01T07:11:53.729Z,780.00
2019-06-01T07:12:53.723Z,816.00
2019-06-01T07:13:53.707Z,864.00
2019-06-01T07:14:53.679Z,884.00
2019-06-01T07:15:53.658Z,892.00
2019-06-01T07:16:53.644Z,912.00
2019-06-01T07:17:53.634Z,920.00
2019-06-01T07:18:53.609Z,892.00
2019-06-01T07:19:53.591Z,932.00
2019-06-01T07:20:53.572Z,976.00
2019-06-01T07:21:53.565Z,948.00
2019-06-01T07:22:53.559Z,932.00
2019-06-01T07:23:53.525Z,936.00
2019-06-01T07:24:53.506Z,980.00
2019-06-01T07:25:53.498Z,1024.00
2019-06-01T07:26:53.490Z,964.00
2019-06-01T07:27:53.473Z,960.00
2019-06-01T07:28:53.433Z,980.00
2019-06-01T07:29:53.425Z,1008.00
2019-06-01T07:30:53.410Z,1084.00
2019-06-01T07:31:53.384Z,1100.00
2019-06-01T07:32:53.362Z,1224.00
2019-06-01T07:33:53.349Z,1212.00
2019-06-01T07:34:53.327Z,1244.00
2019-06-01T07:35:53.310Z,1256.00
2019-06-01T07:36:53.314Z,1320.00
2019-06-01T07:37:53.275Z,1308.00
2019-06-01T07:38:53.282Z,1312.00
2019-06-01T07:39:53.254Z,1268.00
2019-06-01T07:40:53.233Z,1380.00
2019-06-01T07:41:53.220Z,1328.00
2019-06-01T07:42:53.189Z,1352.00
2019-06-01T07:43:53.186Z,1384.00
2019-06-01T07:44:53.156Z,1400.00
2019-06-01T07:45:53.153Z,1460.00
2019-06-01T07:46:53.123Z,1456.00
2019-06-01T07:47:53.113Z,1480.00
2019-06-01T07:48:53.091Z,1428.00
2019-06-01T07:49:53.079Z,1548.00
2019-06-01T07:50:53.061Z,1552.00
2019-06-01T07:51:53.213Z,1580.00
2019-06-01T07:52:53.020Z,1624.00
2019-06-01T07:53:53.004Z,1636.00
2019-06-01T07:54:52.991Z,1672.00
2019-06-01T07:55:52.970Z,1668.00
2019-06-01T07:56:52.952Z,1636.00
2019-06-01T07:57:52.937Z,1640.00
2019-06-01T07:58:52.920Z,1596.00
2019-06-01T07:59:52.906Z,1568.00
2019-06-01T08:00:52.912Z,1684.00
2019-06-01T08:01:52.876Z,1772.00
2019-06-01T08:02:52.858Z,1676.00
2019-06-01T08:03:52.839Z,1592.00
2019-06-01T08:04:54.683Z,1608.00
2019-06-01T08:05:52.805Z,1688.00
2019-06-01T08:06:52.834Z,1540.00
2019-06-01T08:07:52.779Z,1616.00
2019-06-01T08:08:52.761Z,1696.00
2019-06-01T08:09:52.740Z,1756.00
2019-06-01T08:10:52.733Z,1644.00
2019-06-01T08:11:52.707Z,1724.00
2019-06-01T08:12:52.689Z,1888.00
2019-06-01T08:13:52.674Z,1976.00
2019-06-01T08:14:52.666Z,2012.00
2019-06-01T08:15:52.643Z,1968.00
2019-06-01T08:16:52.625Z,1872.00
2019-06-01T08:17:52.607Z,1896.00
2019-06-01T08:18:53.456Z,2052.00
2019-06-01T08:19:52.577Z,2172.00
2019-06-01T08:20:52.571Z,2076.00
2019-06-01T08:21:52.646Z,1736.00
2019-06-01T08:22:52.531Z,1496.00
2019-06-01T08:23:52.511Z,1756.00
2019-06-01T08:24:52.498Z,1444.00
2019-06-01T08:25:52.478Z,1316.00
2019-06-01T08:26:52.463Z,1148.00
2019-06-01T08:27:52.447Z,1036.00
2019-06-01T08:28:52.432Z,1008.00
2019-06-01T08:29:52.415Z,1060.00
2019-06-01T08:30:52.402Z,1136.00
2019-06-01T08:31:55.809Z,1192.00
2019-06-01T08:32:52.388Z,1156.00
2019-06-01T08:33:52.352Z,1184.00
2019-06-01T08:35:07.412Z,1360.00
2019-06-01T08:35:52.322Z,1188.00
2019-06-01T08:36:52.303Z,908.00
2019-06-01T08:37:52.288Z,872.00
2019-06-01T08:38:52.272Z,1272.00
2019-06-01T08:39:52.253Z,1392.00
2019-06-01T08:40:52.359Z,1512.00
2019-06-01T08:41:52.224Z,1672.00
2019-06-01T08:42:52.207Z,1796.00
2019-06-01T08:43:52.189Z,1920.00
2019-06-01T08:44:52.175Z,1896.00
2019-06-01T08:45:52.163Z,1696.00
2019-06-01T08:46:52.146Z,1716.00
2019-06-01T08:47:52.134Z,1868.00
2019-06-01T08:48:52.111Z,1968.00
2019-06-01T08:49:52.106Z,1980.00
2019-06-01T08:50:52.091Z,2008.00
2019-06-01T08:51:52.092Z,2012.00
2019-06-01T08:52:52.048Z,1824.00
2019-06-01T08:53:52.034Z,1964.00
2019-06-01T08:54:52.019Z,2008.00
2019-06-01T08:55:52.002Z,1944.00
2019-06-01T08:56:51.989Z,1836.00
2019-06-01T08:57:51.968Z,1876.00
2019-06-01T08:58:51.970Z,1992.00
2019-06-01T08:59:51.936Z,2032.00
2019-06-01T09:00:51.925Z,2080.00
2019-06-01T09:01:51.918Z,2020.00
2019-06-01T09:02:51.892Z,1196.00
2019-06-01T09:03:51.874Z,2140.00
2019-06-01T09:04:51.861Z,2252.00
2019-06-01T09:05:51.845Z,2340.00
2019-06-01T09:06:51.834Z,2288.00
2019-06-01T09:07:51.812Z,2172.00
2019-06-01T09:08:51.796Z,2296.00
2019-06-01T09:09:51.788Z,2196.00
2019-06-01T09:10:51.771Z,2188.00
2019-06-01T09:11:51.755Z,2168.00
2019-06-01T09:12:51.742Z,2320.00
2019-06-01T09:13:52.466Z,2264.00
2019-06-01T09:14:51.707Z,2224.00
2019-06-01T09:15:51.688Z,2260.00
2019-06-01T09:16:51.674Z,2244.00
2019-06-01T09:17:51.656Z,2236.00
2019-06-01T09:18:51.641Z,2240.00
2019-06-01T09:19:51.626Z,2248.00
2019-06-01T09:20:51.620Z,2284.00
2019-06-01T09:21:51.597Z,2296.00
2019-06-01T09:22:51.585Z,2296.00
2019-06-01T09:23:51.565Z,2328.00
2019-06-01T09:24:53.556Z,2308.00
2019-06-01T09:25:51.543Z,2344.00
2019-06-01T09:26:51.522Z,2320.00
2019-06-01T09:27:51.514Z,2360.00
2019-06-01T09:28:51.489Z,2332.00
2019-06-01T09:29:51.477Z,2328.00
2019-06-01T09:30:51.459Z,1528.00
2019-06-01T09:31:51.442Z,2400.00
2019-06-01T09:32:51.436Z,2384.00
2019-06-01T09:33:51.414Z,2324.00
2019-06-01T09:34:51.398Z,2368.00
2019-06-01T09:35:55.842Z,2404.00
2019-06-01T09:36:51.375Z,2364.00
2019-06-01T09:37:51.354Z,2292.00
2019-06-01T09:38:51.346Z,2320.00
2019-06-01T09:39:51.324Z,2400.00
2019-06-01T09:40:51.323Z,2364.00
2019-06-01T09:41:51.294Z,2400.00
2019-06-01T09:42:51.280Z,2352.00
2019-06-01T09:43:51.300Z,2384.00
2019-06-01T09:44:51.268Z,2280.00
2019-06-01T09:45:53.323Z,2296.00
2019-06-01T09:46:51.237Z,2312.00
2019-06-01T09:47:51.211Z,2408.00
2019-06-01T09:48:51.202Z,2388.00
2019-06-01T09:49:51.195Z,2332.00
2019-06-01T09:50:51.162Z,2252.00
2019-06-01T09:51:51.180Z,2396.00
2019-06-01T09:52:51.132Z,2364.00
2019-06-01T09:53:51.122Z,2400.00
2019-06-01T09:54:51.115Z,2376.00
2019-06-01T09:55:51.090Z,2432.00
2019-06-01T09:56:51.085Z,2328.00
2019-06-01T09:57:51.062Z,2280.00
2019-06-01T09:58:51.054Z,2368.00
2019-06-01T09:59:51.036Z,2420.00
2019-06-01T10:00:51.019Z,2388.00
2019-06-01T10:01:51.181Z,2376.00
2019-06-01T10:02:51.004Z,2380.00
2019-06-01T10:03:51.079Z,2388.00
2019-06-01T10:04:50.959Z,2392.00
2019-06-01T10:06:01.418Z,2284.00
2019-06-01T10:06:50.929Z,2336.00
2019-06-01T10:07:50.917Z,2320.00
2019-06-01T10:08:50.907Z,2336.00
2019-06-01T10:09:50.892Z,2404.00
2019-06-01T10:10:50.886Z,2348.00
2019-06-01T10:11:51.061Z,2368.00
2019-06-01T10:12:50.860Z,2332.00
2019-06-01T10:13:51.054Z,2288.00
2019-06-01T10:14:50.816Z,2260.00
2019-06-01T10:15:50.811Z,2260.00
2019-06-01T10:16:50.789Z,2324.00
2019-06-01T10:17:50.801Z,2308.00
2019-06-01T10:18:50.758Z,2392.00
2019-06-01T10:19:50.746Z,2408.00
2019-06-01T10:20:50.737Z,2428.00
2019-06-01T10:21:50.722Z,2356.00
2019-06-01T10:22:50.712Z,2392.00
2019-06-01T10:23:50.711Z,2420.00
2019-06-01T10:24:50.682Z,2432.00
2019-06-01T10:25:50.660Z,2456.00
2019-06-01T10:26:50.647Z,2404.00
2019-06-01T10:27:50.638Z,2384.00
2019-06-01T10:28:50.617Z,2352.00
2019-06-01T10:29:50.610Z,2352.00
2019-06-01T10:30:50.594Z,2364.00
2019-06-01T10:31:50.580Z,2404.00
2019-06-01T10:32:50.581Z,2376.00
2019-06-01T10:33:51.710Z,2380.00
2019-06-01T10:34:50.534Z,2348.00
2019-06-01T10:35:50.542Z,2332.00
2019-06-01T10:36:50.508Z,2348.00
2019-06-01T10:37:50.519Z,2320.00
2019-06-01T10:38:50.477Z,2368.00
2019-06-01T10:39:50.465Z,2348.00
2019-06-01T10:40:50.460Z,2308.00
2019-06-01T10:41:50.433Z,2348.00
2019-06-01T10:42:50.428Z,2312.00
2019-06-01T10:43:50.424Z,2268.00
2019-06-01T10:44:50.394Z,2272.00
2019-06-01T10:45:50.381Z,2248.00
2019-06-01T10:46:50.368Z,2276.00
2019-06-01T10:47:50.361Z,2304.00
2019-06-01T10:48:50.340Z,2256.00
2019-06-01T10:49:50.321Z,2296.00
2019-06-01T10:50:50.307Z,2368.00
2019-06-01T10:51:50.321Z,2388.00
2019-06-01T10:52:50.302Z,2400.00
2019-06-01T10:53:50.266Z,2348.00
2019-06-01T10:54:50.268Z,2376.00
2019-06-01T10:55:50.239Z,2428.00
2019-06-01T10:56:50.355Z,2424.00
2019-06-01T10:57:50.216Z,2396.00
2019-06-01T10:58:59.907Z,2376.00
2019-06-01T10:59:50.183Z,2404.00
2019-06-01T11:00:51.203Z,2352.00
2019-06-01T11:01:50.160Z,2340.00
2019-06-01T11:02:50.142Z,2272.00
2019-06-01T11:03:50.132Z,2376.00
2019-06-01T11:04:50.116Z,2352.00
2019-06-01T11:05:50.103Z,2388.00
2019-06-01T11:06:50.091Z,2364.00
2019-06-01T11:07:50.077Z,2364.00
2019-06-01T11:08:50.083Z,2388.00
2019-06-01T11:09:50.049Z,2404.00
2019-06-01T11:10:50.039Z,2380.00
2019-06-01T11:11:50.027Z,2380.00
2019-06-01T11:12:50.012Z,2308.00
2019-06-01T11:13:49.997Z,2328.00
2019-06-01T11:14:49.991Z,2372.00
2019-06-01T11:15:49.983Z,2444.00
2019-06-01T11:16:55.951Z,2416.00
2019-06-01T11:17:49.946Z,2452.00
2019-06-01T11:18:49.927Z,2464.00
2019-06-01T11:19:49.912Z,2472.00
2019-06-01T11:20:49.906Z,2476.00
2019-06-01T11:21:49.889Z,2472.00
2019-06-01T11:22:49.877Z,2384.00
2019-06-01T11:23:49.861Z,2372.00
2019-06-01T11:24:49.851Z,2320.00
2019-06-01T11:25:49.836Z,2284.00
2019-06-01T11:26:49.821Z,2364.00
2019-06-01T11:27:49.821Z,2376.00
2019-06-01T11:28:49.794Z,2336.00
2019-06-01T11:29:51.735Z,2312.00
2019-06-01T11:30:49.782Z,2284.00
2019-06-01T11:31:49.757Z,2212.00
2019-06-01T11:32:49.753Z,2236.00
2019-06-01T11:33:49.732Z,2312.00
2019-06-01T11:34:49.730Z,2340.00
2019-06-01T11:35:49.707Z,2376.00
2019-06-01T11:37:04.277Z,2432.00
2019-06-01T11:37:49.673Z,2440.00
2019-06-01T11:38:49.661Z,2440.00
2019-06-01T11:39:49.650Z,2584.00
2019-06-01T11:40:49.634Z,2544.00
2019-06-01T11:41:49.618Z,2496.00
2019-06-01T11:42:49.611Z,2472.00
2019-06-01T11:43:49.592Z,2480.00
2019-06-01T11:44:49.613Z,2584.00
2019-06-01T11:45:49.575Z,2640.00
2019-06-01T11:46:49.559Z,2588.00
2019-06-01T11:47:49.549Z,2540.00
2019-06-01T11:48:49.526Z,2492.00
2019-06-01T11:49:49.511Z,2544.00
2019-06-01T11:50:49.503Z,2524.00
2019-06-01T11:51:49.486Z,2492.00
2019-06-01T11:52:49.471Z,2464.00
2019-06-01T11:53:49.461Z,2356.00
2019-06-01T11:54:49.449Z,2360.00
2019-06-01T11:55:49.437Z,2472.00
2019-06-01T11:56:49.423Z,2484.00
2019-06-01T11:57:49.411Z,2548.00
2019-06-01T11:58:49.396Z,2636.00
2019-06-01T11:59:49.383Z,2640.00
2019-06-01T12:00:49.369Z,2636.00
2019-06-01T12:01:49.355Z,2668.00
2019-06-01T12:02:49.343Z,2648.00
2019-06-01T12:03:49.334Z,2624.00
2019-06-01T12:04:49.318Z,2572.00
2019-06-01T12:05:49.302Z,2556.00
2019-06-01T12:06:49.415Z,2520.00
2019-06-01T12:07:49.292Z,2492.00
2019-06-01T12:08:49.263Z,2496.00
2019-06-01T12:09:49.252Z,2476.00
2019-06-01T12:10:49.236Z,2504.00
2019-06-01T12:11:49.223Z,2548.00
2019-06-01T12:12:49.210Z,2476.00
2019-06-01T12:13:49.197Z,2464.00
2019-06-01T12:14:49.182Z,2476.00
2019-06-01T12:15:49.172Z,2768.00
2019-06-01T12:16:49.160Z,2476.00
2019-06-01T12:17:49.146Z,2528.00
2019-06-01T12:18:49.134Z,2620.00
2019-06-01T12:19:49.127Z,2536.00
2019-06-01T12:20:49.105Z,2524.00
2019-06-01T12:21:49.091Z,2504.00
2019-06-01T12:22:49.080Z,2524.00
2019-06-01T12:23:49.074Z,2636.00
2019-06-01T12:24:49.059Z,2540.00
2019-06-01T12:25:49.047Z,2524.00
2019-06-01T12:26:49.036Z,2572.00
2019-06-01T12:27:49.022Z,2584.00
2019-06-01T12:28:49.008Z,2620.00
2019-06-01T12:29:52.403Z,2624.00
2019-06-01T12:30:48.975Z,2576.00
2019-06-01T12:31:48.990Z,2528.00